Time;durP1;ratioP1;P1;durP2;ratioP2;P2;SDS_P1;SDS_P2;PMS_P1;PMS_P2;Temp;Humidity;BMP_temperature;BMP_pressure;BME280_temperature;BME280_humidity;BME280_pressure;Samples;Min_cycle;Max_cycle;Signal;HPM_P1;HPM_P2
2023/07/22 00:00:26;;;;;;;5.43;2.23;;;;;11.30;94143.00;;;;7394540;19;20153;-77
2023/07/22 00:02:54;;;;;;;2.67;2.10;;;;;11.30;94142.00;;;;7397194;19;20152;-79
2023/07/22 00:05:36;;;;;;;3.95;2.10;;;;;11.40;94135.00;;;;7396032;19;20647;-77
2023/07/22 00:08:05;;;;;;;2.28;2.00;;;;;11.40;94134.00;;;;7395809;19;20129;-76
2023/07/22 00:10:43;;;;;;;2.33;2.13;;;;;11.40;94138.00;;;;7396746;19;20152;-76
2023/07/22 00:13:18;;;;;;;2.47;2.20;;;;;11.70;94143.00;;;;7397373;19;20617;-80
2023/07/22 00:16:03;;;;;;;4.93;2.40;;;;;11.60;94139.00;;;;7399169;19;20526;-78
2023/07/22 00:18:41;;;;;;;3.57;2.03;;;;;11.40;94136.00;;;;7396512;19;20144;-80
2023/07/22 00:21:16;;;;;;;4.13;2.20;;;;;11.40;94139.00;;;;7397565;19;20145;-79
2023/07/22 00:23:53;;;;;;;3.13;2.37;;;;;11.50;94130.00;;;;7398157;19;20593;-78
2023/07/22 00:26:28;;;;;;;3.20;2.20;;;;;11.60;94138.00;;;;7396752;19;20561;-79
2023/07/22 00:28:56;;;;;;;4.63;2.27;;;;;11.70;94136.00;;;;7398414;19;20143;-79
2023/07/22 00:31:31;;;;;;;3.65;1.80;;;;;11.50;94136.00;;;;7399253;19;20464;-79
2023/07/22 00:34:06;;;;;;;2.47;2.10;;;;;11.40;94132.00;;;;7396349;19;20588;-77
2023/07/22 00:36:37;;;;;;;3.53;1.93;;;;;11.40;94129.00;;;;7389568;19;20149;-79
2023/07/22 00:39:13;;;;;;;5.10;1.87;;;;;11.40;94127.00;;;;7396080;19;20137;-80
2023/07/22 00:41:44;;;;;;;2.95;2.20;;;;;11.40;94132.00;;;;7396692;19;20148;-79
2023/07/22 00:44:18;;;;;;;4.13;2.45;;;;;11.30;94125.00;;;;7395344;19;20184;-78
2023/07/22 00:46:56;;;;;;;5.43;2.00;;;;;11.40;94128.00;;;;7396856;19;20143;-80
2023/07/22 00:49:27;;;;;;;3.93;2.13;;;;;11.50;94130.00;;;;7397065;19;20145;-80
2023/07/22 00:52:02;;;;;;;3.07;2.20;;;;;11.60;94120.00;;;;7396996;19;20163;-79
2023/07/22 00:54:31;;;;;;;5.43;2.20;;;;;11.70;94124.00;;;;7398398;19;20141;-82
2023/07/22 00:57:07;;;;;;;2.50;2.00;;;;;11.60;94116.00;;;;7397618;19;20733;-81
2023/07/22 00:59:42;;;;;;;2.47;2.08;;;;;11.80;94125.00;;;;7397598;19;20161;-79
2023/07/22 01:02:21;;;;;;;4.78;2.25;;;;;11.90;94110.00;;;;7394171;19;20184;-80
2023/07/22 01:04:51;;;;;;;2.53;2.30;;;;;11.80;94112.00;;;;7394851;19;20640;-80
2023/07/22 01:07:34;;;;;;;3.25;2.00;;;;;11.80;94109.00;;;;7398115;19;20245;-80
2023/07/22 01:10:09;;;;;;;3.33;2.58;;;;;11.90;94115.00;;;;7399158;19;20515;-80
2023/07/22 01:12:45;;;;;;;3.08;2.33;;;;;12.00;94114.00;;;;7400732;19;20121;-84
2023/07/22 01:15:15;;;;;;;6.72;2.38;;;;;12.20;94113.00;;;;7403516;19;20129;-80
2023/07/22 01:17:50;;;;;;;3.03;1.92;;;;;12.00;94106.00;;;;7405814;19;20150;-82
2023/07/22 01:20:18;;;;;;;2.83;2.00;;;;;12.00;94100.00;;;;7401301;19;20149;-79
2023/07/22 01:22:54;;;;;;;2.33;2.08;;;;;12.00;94108.00;;;;7404288;19;20132;-78
2023/07/22 01:25:29;;;;;;;2.25;1.95;;;;;12.20;94098.00;;;;7405083;19;20145;-80
2023/07/22 01:28:10;;;;;;;2.55;2.17;;;;;12.20;94105.00;;;;7403992;19;20177;-80
2023/07/22 01:30:41;;;;;;;2.42;2.17;;;;;12.40;94095.00;;;;7402872;19;20172;-79
2023/07/22 01:33:15;;;;;;;4.22;2.17;;;;;12.30;94094.00;;;;7402855;19;20642;-79
2023/07/22 01:35:50;;;;;;;3.95;2.50;;;;;12.50;94094.00;;;;7403721;19;20164;-78
2023/07/22 01:38:27;;;;;;;2.72;2.10;;;;;12.60;94097.00;;;;7402560;19;20638;-80
2023/07/22 01:40:55;;;;;;;4.03;2.38;;;;;12.50;94089.00;;;;7401798;19;20133;-80
2023/07/22 01:43:22;;;;;;;4.00;2.05;;;;;12.50;94086.00;;;;7402116;19;20147;-78
2023/07/22 01:45:57;;;;;;;2.60;1.98;;;;;12.50;94088.00;;;;7403642;19;20131;-79
2023/07/22 01:48:33;;;;;;;2.03;1.60;;;;;12.20;94089.00;;;;7401479;19;20132;-79
2023/07/22 01:51:08;;;;;;;2.47;2.00;;;;;12.10;94096.00;;;;7401423;19;20144;-78
2023/07/22 01:53:36;;;;;;;3.60;2.25;;;;;11.90;94092.00;;;;7402713;19;20152;-79
2023/07/22 01:56:11;;;;;;;2.33;2.00;;;;;12.20;94086.00;;;;7401758;19;20169;-80
2023/07/22 01:58:46;;;;;;;2.08;1.88;;;;;12.30;94084.00;;;;7400001;19;20125;-79
2023/07/22 02:01:21;;;;;;;4.03;2.20;;;;;12.10;94083.00;;;;7399381;19;20176;-80
2023/07/22 02:04:12;;;;;;;4.93;2.45;;;;;11.90;94080.00;;;;7402780;19;20510;-82
2023/07/22 02:06:49;;;;;;;3.30;2.00;;;;;11.80;94079.00;;;;7403928;19;20125;-80
2023/07/22 02:09:17;;;;;;;2.45;2.00;;;;;11.70;94079.00;;;;7402468;19;20152;-81
2023/07/22 02:11:53;;;;;;;3.97;1.80;;;;;11.70;94085.00;;;;7402692;19;20156;-79
2023/07/22 02:14:29;;;;;;;3.35;2.00;;;;;11.80;94083.00;;;;7402190;19;20171;-79
2023/07/22 02:16:58;;;;;;;3.97;2.33;;;;;11.80;94080.00;;;;7398367;19;20149;-80
2023/07/22 02:19:32;;;;;;;2.95;1.65;;;;;11.60;94090.00;;;;7402795;19;20147;-79
2023/07/22 02:22:08;;;;;;;3.83;2.13;;;;;11.70;94091.00;;;;7403185;19;20141;-80
2023/07/22 02:24:43;;;;;;;3.17;1.83;;;;;11.70;94095.00;;;;7402240;19;20628;-80
2023/07/22 02:27:17;;;;;;;4.85;1.90;;;;;11.90;94089.00;;;;7404155;19;20148;-79
2023/07/22 02:29:45;;;;;;;2.80;2.20;;;;;11.90;94091.00;;;;7407059;19;20177;-81
2023/07/22 02:32:19;;;;;;;9.20;2.20;;;;;12.00;94095.00;;;;7407288;19;20147;-81
2023/07/22 02:34:55;;;;;;;2.73;1.93;;;;;12.30;94104.00;;;;7412177;19;20136;-81
2023/07/22 02:37:33;;;;;;;3.80;2.10;;;;;12.10;94100.00;;;;7401001;19;20136;-80
2023/07/22 02:40:07;;;;;;;2.30;1.90;;;;;12.00;94105.00;;;;7403560;19;20133;-81
2023/07/22 02:42:41;;;;;;;4.45;2.08;;;;;11.90;94107.00;;;;7403963;19;20149;-78
2023/07/22 02:45:16;;;;;;;2.28;2.08;;;;;11.70;94091.00;;;;7402847;19;20143;-81
2023/07/22 02:47:50;;;;;;;2.38;1.80;;;;;11.60;94097.00;;;;7402380;19;20145;-81
2023/07/22 02:50:20;;;;;;;2.90;2.00;;;;;11.60;94095.00;;;;7401792;19;20496;-79
2023/07/22 02:52:54;;;;;;;4.27;1.77;;;;;11.60;94083.00;;;;7400607;19;20660;-79
2023/07/22 02:55:29;;;;;;;2.90;2.40;;;;;11.60;94097.00;;;;7401702;19;20633;-82
2023/07/22 02:58:03;;;;;;;3.95;2.10;;;;;11.50;94103.00;;;;7403449;19;20193;-80
2023/07/22 03:00:37;;;;;;;4.28;2.47;;;;;11.30;94093.00;;;;7399214;19;20140;-81
2023/07/22 03:03:12;;;;;;;4.20;1.92;;;;;11.20;94093.00;;;;7401083;19;20154;-81
2023/07/22 03:05:52;;;;;;;4.82;2.42;;;;;11.50;94102.00;;;;7399505;19;20156;-80
2023/07/22 03:08:27;;;;;;;3.13;2.25;;;;;11.40;94103.00;;;;7403170;19;20133;-82
2023/07/22 03:10:55;;;;;;;2.25;1.73;;;;;11.40;94097.00;;;;7401125;19;20131;-81
2023/07/22 03:13:30;;;;;;;6.32;2.10;;;;;11.40;94098.00;;;;7398846;19;20662;-78
2023/07/22 03:16:05;;;;;;;2.83;1.90;;;;;11.40;94100.00;;;;7399006;19;20476;-78
2023/07/22 03:18:41;;;;;;;2.33;1.90;;;;;11.40;94094.00;;;;7397503;19;20140;-79
2023/07/22 03:21:09;;;;;;;2.80;2.33;;;;;11.40;94091.00;;;;7398131;19;20754;-79
2023/07/22 03:23:44;;;;;;;3.53;2.20;;;;;11.60;94095.00;;;;7399274;19;20128;-81
2023/07/22 03:26:23;;;;;;;2.92;2.38;;;;;11.50;94100.00;;;;7397881;19;20136;-79
2023/07/22 03:28:58;;;;;;;3.08;2.10;;;;;11.70;94096.00;;;;7398501;19;20505;-79
2023/07/22 03:31:26;;;;;;;2.90;2.30;;;;;11.70;94090.00;;;;7397755;19;20628;-81
2023/07/22 03:34:00;;;;;;;2.20;2.00;;;;;11.70;94096.00;;;;7399861;19;20132;-80
2023/07/22 03:36:34;;;;;;;3.00;2.30;;;;;11.50;94096.00;;;;7396240;19;20628;-79
2023/07/22 03:39:09;;;;;;;3.10;2.20;;;;;11.60;94095.00;;;;7396558;19;20600;-80
2023/07/22 03:41:36;;;;;;;5.75;2.53;;;;;11.70;94094.00;;;;7396093;19;20150;-81
2023/07/22 03:44:11;;;;;;;4.97;2.58;;;;;11.70;94096.00;;;;7398227;19;20132;-79
2023/07/22 03:46:39;;;;;;;2.13;1.90;;;;;11.60;94097.00;;;;7396795;19;20185;-80
2023/07/22 03:49:14;;;;;;;3.67;2.05;;;;;11.80;94097.00;;;;7398763;19;20422;-81
2023/07/22 03:51:45;;;;;;;4.32;2.38;;;;;11.90;94095.00;;;;7398375;19;20170;-79
2023/07/22 03:54:20;;;;;;;3.75;2.47;;;;;12.00;94088.00;;;;7395828;19;20504;-79
2023/07/22 03:56:48;;;;;;;3.63;2.28;;;;;12.10;94096.00;;;;7396742;19;20149;-81
2023/07/22 03:59:16;;;;;;;4.30;2.70;;;;;12.10;94100.00;;;;7395325;19;20248;-81
2023/07/22 04:01:50;;;;;;;2.47;1.95;;;;;12.20;94096.00;;;;7393735;19;20182;-81
2023/07/22 04:04:31;;;;;;;2.78;2.28;;;;;12.10;94103.00;;;;7394708;19;20140;-80
2023/07/22 04:07:08;;;;;;;3.00;2.22;;;;;12.00;94093.00;;;;7399014;19;20133;-81
2023/07/22 04:09:44;;;;;;;2.50;2.00;;;;;12.00;94088.00;;;;7397142;19;20132;-80
2023/07/22 04:12:19;;;;;;;4.35;2.22;;;;;12.10;94090.00;;;;7396225;19;20155;-79
2023/07/22 04:14:48;;;;;;;5.20;2.25;;;;;12.10;94093.00;;;;7396294;19;20129;-82
2023/07/22 04:17:22;;;;;;;2.83;2.40;;;;;12.10;94093.00;;;;7395838;19;20270;-79
2023/07/22 04:19:51;;;;;;;3.08;2.30;;;;;12.20;94089.00;;;;7395471;19;20148;-81
2023/07/22 04:22:28;;;;;;;3.65;2.38;;;;;12.10;94088.00;;;;7397057;19;20555;-80
2023/07/22 04:24:57;;;;;;;3.47;1.92;;;;;12.10;94091.00;;;;7398759;19;20136;-79
2023/07/22 04:27:35;;;;;;;2.63;2.08;;;;;12.30;94088.00;;;;7395044;19;20151;-78
2023/07/22 04:30:11;;;;;;;3.90;2.03;;;;;12.30;94086.00;;;;7397341;19;20588;-80
2023/07/22 04:32:39;;;;;;;2.65;2.08;;;;;12.30;94088.00;;;;7394650;19;20165;-79
2023/07/22 04:35:14;;;;;;;3.40;2.28;;;;;12.40;94086.00;;;;7393803;19;20675;-81
2023/07/22 04:37:44;;;;;;;2.60;1.95;;;;;12.50;94088.00;;;;7396982;19;20137;-78
2023/07/22 04:40:18;;;;;;;3.45;2.10;;;;;12.50;94089.00;;;;7396207;19;20144;-78
2023/07/22 04:42:47;;;;;;;2.00;1.80;;;;;12.60;94091.00;;;;7395031;19;20192;-78
2023/07/22 04:45:24;;;;;;;2.90;2.10;;;;;12.40;94083.00;;;;7392128;19;20160;-79
2023/07/22 04:47:53;;;;;;;2.03;1.83;;;;;12.50;94090.00;;;;7394003;19;20151;-78
2023/07/22 04:50:20;;;;;;;3.17;2.08;;;;;12.70;94093.00;;;;7395515;19;20156;-79
2023/07/22 04:53:02;;;;;;;5.18;2.30;;;;;12.60;94092.00;;;;7395129;19;20627;-82
2023/07/22 04:55:30;;;;;;;3.28;1.90;;;;;12.90;94088.00;;;;7396880;19;20146;-80
2023/07/22 04:58:04;;;;;;;3.83;2.03;;;;;13.10;94081.00;;;;7393195;19;20519;-78
2023/07/22 05:00:37;;;;;;;2.80;2.08;;;;;13.20;94088.00;;;;7390937;19;20619;-80
2023/07/22 05:03:14;;;;;;;5.57;2.00;;;;;13.30;94098.00;;;;7398293;19;20135;-79
2023/07/22 05:05:42;;;;;;;2.33;2.13;;;;;13.40;94092.00;;;;7393699;19;20651;-79
2023/07/22 05:08:17;;;;;;;3.03;2.13;;;;;13.60;94088.00;;;;7393628;19;20153;-79
2023/07/22 05:10:44;;;;;;;2.67;2.10;;;;;13.70;94098.00;;;;7392879;19;20173;-79
2023/07/22 05:13:20;;;;;;;3.88;1.67;;;;;13.80;94098.00;;;;7392645;19;20165;-78
2023/07/22 05:15:48;;;;;;;5.60;2.10;;;;;13.90;94099.00;;;;7379349;19;20155;-77
2023/07/22 05:18:23;;;;;;;6.18;1.98;;;;;14.10;94096.00;;;;7387511;19;20148;-79
2023/07/22 05:20:52;;;;;;;5.38;1.90;;;;;14.10;94095.00;;;;7386682;19;20216;-79
2023/07/22 05:23:29;;;;;;;2.50;2.10;;;;;14.30;94093.00;;;;7386606;19;20169;-79
2023/07/22 05:26:06;;;;;;;2.70;1.95;;;;;14.40;94098.00;;;;7386610;19;20628;-79
2023/07/22 05:28:40;;;;;;;2.28;1.70;;;;;14.50;94097.00;;;;7386612;19;20177;-80
2023/07/22 05:31:08;;;;;;;3.00;2.00;;;;;14.70;94103.00;;;;7387417;19;20212;-79
2023/07/22 05:33:37;;;;;;;4.63;1.73;;;;;14.90;94105.00;;;;7384570;19;20162;-79
2023/07/22 05:36:11;;;;;;;2.20;1.75;;;;;15.10;94093.00;;;;7387385;19;20139;-78
2023/07/22 05:38:39;;;;;;;2.70;1.98;;;;;15.20;94100.00;;;;7386934;19;20177;-80
2023/07/22 05:41:13;;;;;;;2.65;1.73;;;;;15.20;94097.00;;;;7385992;19;20611;-79
2023/07/22 05:43:43;;;;;;;2.22;1.73;;;;;15.40;94103.00;;;;7385344;19;20181;-81
2023/07/22 05:46:17;;;;;;;1.90;1.70;;;;;15.50;94108.00;;;;7384934;19;20522;-80
2023/07/22 05:48:45;;;;;;;2.83;1.80;;;;;15.90;94098.00;;;;7388170;19;20121;-79
2023/07/22 05:51:20;;;;;;;5.95;2.08;;;;;15.90;94102.00;;;;7385143;19;20182;-78
2023/07/22 05:53:50;;;;;;;3.75;1.73;;;;;16.10;94096.00;;;;7387181;19;20157;-78
2023/07/22 05:56:25;;;;;;;2.53;1.55;;;;;16.30;94107.00;;;;7386609;19;20561;-80
2023/07/22 05:58:54;;;;;;;1.90;1.63;;;;;16.40;94107.00;;;;7384914;19;20153;-78
2023/07/22 06:01:28;;;;;;;1.98;1.77;;;;;16.50;94114.00;;;;7390692;19;20638;-78
2023/07/22 06:03:56;;;;;;;1.75;1.60;;;;;16.70;94112.00;;;;7390889;19;20500;-77
2023/07/22 06:06:37;;;;;;;2.22;1.48;;;;;16.70;94122.00;;;;7390808;19;20190;-81
2023/07/22 06:09:16;;;;;;;4.68;1.70;;;;;16.90;94121.00;;;;7390406;19;20117;-81
2023/07/22 06:11:53;;;;;;;1.55;1.45;;;;;17.10;94115.00;;;;7391002;19;20222;-79
2023/07/22 06:14:27;;;;;;;2.30;1.60;;;;;17.20;94124.00;;;;7390830;19;20651;-78
2023/07/22 06:17:05;;;;;;;3.13;1.80;;;;;17.50;94116.00;;;;7386882;19;20596;-80
2023/07/22 06:19:33;;;;;;;3.58;1.70;;;;;17.90;94124.00;;;;7390671;19;20128;-78
2023/07/22 06:22:07;;;;;;;1.63;1.40;;;;;18.10;94125.00;;;;7392311;19;20161;-78
2023/07/22 06:24:35;;;;;;;1.90;1.50;;;;;18.40;94125.00;;;;7388411;19;20145;-78
2023/07/22 06:27:09;;;;;;;3.22;1.50;;;;;18.50;94124.00;;;;7386927;19;20611;-78
2023/07/22 06:29:44;;;;;;;1.50;1.30;;;;;19.20;94130.00;;;;7391246;19;20163;-80
2023/07/22 06:32:18;;;;;;;3.05;1.60;;;;;19.60;94121.00;;;;7389615;19;20217;-77
2023/07/22 06:34:46;;;;;;;3.50;1.50;;;;;20.00;94121.00;;;;7391144;19;20141;-78
2023/07/22 06:37:20;;;;;;;1.65;1.50;;;;;19.80;94115.00;;;;7390601;19;20148;-80
2023/07/22 06:39:50;;;;;;;10.75;1.33;;;;;19.40;94126.00;;;;7391329;19;20149;-81
2023/07/22 06:42:27;;;;;;;2.08;1.60;;;;;19.20;94130.00;;;;7388937;19;20148;-79
2023/07/22 06:45:06;;;;;;;2.03;1.50;;;;;19.50;94132.00;;;;7390912;19;20200;-80
2023/07/22 06:47:40;;;;;;;2.40;1.30;;;;;19.70;94134.00;;;;7390720;19;20144;-80
2023/07/22 06:50:12;;;;;;;1.50;1.40;;;;;19.70;94128.00;;;;7391542;19;20141;-82
2023/07/22 06:52:47;;;;;;;2.95;1.60;;;;;19.90;94127.00;;;;7391222;19;20170;-78
2023/07/22 06:55:22;;;;;;;1.55;1.20;;;;;19.70;94125.00;;;;7391165;19;20162;-79
2023/07/22 06:57:59;;;;;;;3.40;1.55;;;;;19.70;94138.00;;;;7390671;19;20140;-78
2023/07/22 07:00:27;;;;;;;1.55;1.45;;;;;19.70;94139.00;;;;7387534;19;20516;-78
2023/07/22 07:03:01;;;;;;;1.77;1.50;;;;;19.80;94128.00;;;;7388845;19;20144;-78
2023/07/22 07:05:41;;;;;;;2.95;1.52;;;;;19.70;94143.00;;;;7387181;19;20200;-83
2023/07/22 07:08:23;;;;;;;3.15;1.40;;;;;19.70;94153.00;;;;7391105;19;20140;-79
2023/07/22 07:11:01;;;;;;;3.22;1.58;;;;;19.70;94144.00;;;;7388285;19;20628;-79
2023/07/22 07:13:29;;;;;;;4.07;1.70;;;;;19.20;94147.00;;;;7392499;19;20173;-78
2023/07/22 07:16:25;;;;;;;2.88;1.73;;;;;19.60;94148.00;;;;7386095;19;20159;-78
2023/07/22 07:18:55;;;;;;;2.38;1.40;;;;;19.20;94144.00;;;;7388995;19;20582;-76
2023/07/22 07:21:32;;;;;;;3.35;1.55;;;;;19.30;94152.00;;;;7386203;19;20156;-78
2023/07/22 07:24:01;;;;;;;5.07;1.55;;;;;19.40;94156.00;;;;7388018;19;20148;-80
2023/07/22 07:26:38;;;;;;;2.17;1.58;;;;;19.70;94158.00;;;;7390079;19;20513;-80
2023/07/22 07:29:06;;;;;;;1.52;1.38;;;;;19.50;94164.00;;;;7390379;19;20142;-78
2023/07/22 07:31:59;;;;;;;5.88;1.30;;;;;19.80;94152.00;;;;7389171;19;20152;-81
2023/07/22 07:34:27;;;;;;;3.15;1.60;;;;;19.60;94154.00;;;;7389308;19;20445;-77
2023/07/22 07:37:05;;;;;;;4.53;2.20;;;;;20.10;94154.00;;;;7387776;19;20227;-79
2023/07/22 07:39:33;;;;;;;2.10;1.40;;;;;20.00;94165.00;;;;7389657;19;20144;-77
2023/07/22 07:42:13;;;;;;;4.80;2.15;;;;;20.10;94155.00;;;;7387362;19;20214;-76
2023/07/22 07:44:49;;;;;;;5.00;1.48;;;;;19.90;94164.00;;;;7389022;19;20505;-80
2023/07/22 07:47:19;;;;;;;3.25;1.75;;;;;19.80;94161.00;;;;7392923;19;20169;-79
2023/07/22 07:50:07;;;;;;;1.85;1.60;;;;;20.20;94173.00;;;;7389771;19;20144;-80
2023/07/22 07:52:38;;;;;;;2.13;1.42;;;;;19.70;94184.00;;;;7390016;19;20152;-79
2023/07/22 07:55:14;;;;;;;1.75;1.50;;;;;19.70;94172.00;;;;7387298;19;20148;-82
2023/07/22 07:57:41;;;;;;;1.83;1.60;;;;;19.90;94176.00;;;;7386488;19;20165;-77
2023/07/22 08:00:16;;;;;;;2.00;1.30;;;;;19.60;94176.00;;;;7387504;19;20703;-83
2023/07/22 08:02:45;;;;;;;1.77;1.50;;;;;19.30;94164.00;;;;7385227;19;20188;-78
2023/07/22 08:05:19;;;;;;;1.30;1.20;;;;;19.40;94171.00;;;;7386978;19;20183;-79
2023/07/22 08:07:54;;;;;;;1.70;1.50;;;;;19.60;94155.00;;;;7390986;19;20649;-79
2023/07/22 08:10:22;;;;;;;2.00;1.80;;;;;20.80;94170.00;;;;7393127;19;20972;-77
2023/07/22 08:12:56;;;;;;;4.72;1.65;;;;;20.40;94170.00;;;;7390023;19;21119;-80
2023/07/22 08:15:24;;;;;;;1.40;1.30;;;;;20.50;94167.00;;;;7384085;19;20213;-76
2023/07/22 08:17:59;;;;;;;1.58;1.48;;;;;20.30;94180.00;;;;7385845;19;20160;-78
2023/07/22 08:20:27;;;;;;;1.67;1.27;;;;;20.10;94181.00;;;;7390142;19;20466;-77
2023/07/22 08:23:02;;;;;;;2.25;1.58;;;;;20.10;94192.00;;;;7383555;19;20208;-77
2023/07/22 08:25:38;;;;;;;1.75;1.60;;;;;19.70;94183.00;;;;7389329;19;20600;-78
2023/07/22 08:28:16;;;;;;;2.13;1.50;;;;;19.30;94190.00;;;;7386943;19;20128;-77
2023/07/22 08:30:45;;;;;;;1.92;1.50;;;;;19.40;94195.00;;;;7385445;19;20141;-78
2023/07/22 08:33:19;;;;;;;3.58;1.52;;;;;19.30;94193.00;;;;7386733;19;20165;-76
2023/07/22 08:36:06;;;;;;;2.13;1.50;;;;;19.30;94188.00;;;;7386901;19;20175;-77
2023/07/22 08:38:42;;;;;;;6.22;1.67;;;;;19.40;94177.00;;;;7387494;19;20135;-75
2023/07/22 08:41:16;;;;;;;2.53;1.25;;;;;19.60;94179.00;;;;7386553;19;20655;-76
2023/07/22 08:43:54;;;;;;;1.48;1.38;;;;;19.80;94190.00;;;;7389045;19;20145;-79
2023/07/22 08:46:28;;;;;;;3.38;1.38;;;;;19.60;94188.00;;;;7385452;19;20555;-80
2023/07/22 08:49:05;;;;;;;1.92;1.38;;;;;19.60;94188.00;;;;7386315;19;20901;-78
2023/07/22 08:51:37;;;;;;;1.52;1.40;;;;;19.80;94193.00;;;;7384894;19;20204;-78
2023/07/22 08:54:13;;;;;;;1.98;1.48;;;;;19.90;94193.00;;;;7389768;19;20592;-80
2023/07/22 08:56:45;;;;;;;1.95;1.38;;;;;20.40;94158.00;;;;7388256;19;20595;-78
2023/07/22 08:59:21;;;;;;;2.97;1.50;;;;;21.00;94176.00;;;;7387680;19;20165;-80
2023/07/22 09:01:49;;;;;;;2.05;1.40;;;;;20.90;94172.00;;;;7388231;19;20512;-80
2023/07/22 09:04:24;;;;;;;3.53;1.80;;;;;20.90;94173.00;;;;7385548;19;20144;-77
2023/07/22 09:07:06;;;;;;;1.77;1.50;;;;;21.30;94183.00;;;;7387179;19;20159;-79
2023/07/22 09:09:56;;;;;;;3.78;1.52;;;;;21.00;94178.00;;;;7388002;19;20155;-78
2023/07/22 09:12:39;;;;;;;2.00;1.40;;;;;20.90;94192.00;;;;7385785;19;20152;-79
2023/07/22 09:15:16;;;;;;;2.03;1.50;;;;;19.90;94186.00;;;;7385725;19;20162;-79
2023/07/22 09:17:51;;;;;;;1.55;1.23;;;;;20.40;94191.00;;;;7386112;19;20145;-80
2023/07/22 09:20:23;;;;;;;1.73;1.42;;;;;20.70;94183.00;;;;7382868;19;20141;-79
2023/07/22 09:22:58;;;;;;;3.00;1.85;;;;;20.50;94179.00;;;;7384290;19;20599;-77
2023/07/22 09:25:42;;;;;;;1.70;1.20;;;;;21.20;94183.00;;;;7384749;19;20510;-79
2023/07/22 09:28:17;;;;;;;1.83;1.20;;;;;21.10;94129.00;;;;7386145;19;21318;-79
2023/07/22 09:31:02;;;;;;;3.40;1.52;;;;;21.00;94185.00;;;;7383107;19;20148;-78
2023/07/22 09:33:36;;;;;;;2.20;1.33;;;;;21.40;94141.00;;;;7382369;19;20157;-80
2023/07/22 09:36:11;;;;;;;3.00;1.60;;;;;22.10;94171.00;;;;7389941;19;20825;-81
2023/07/22 09:38:59;;;;;;;1.63;1.42;;;;;21.50;94182.00;;;;7393086;19;20165;-79
2023/07/22 09:41:30;;;;;;;1.90;1.38;;;;;21.30;94186.00;;;;7392388;19;20149;-79
2023/07/22 09:44:09;;;;;;;2.45;1.70;;;;;20.80;94189.00;;;;7388963;19;20144;-79
2023/07/22 09:46:36;;;;;;;3.63;1.40;;;;;20.40;94197.00;;;;7387579;19;20201;-79
2023/07/22 09:49:15;;;;;;;1.90;1.38;;;;;20.50;94186.00;;;;7390556;19;20140;-77
2023/07/22 09:51:44;;;;;;;2.50;1.42;;;;;20.30;94191.00;;;;7389585;19;20168;-74
2023/07/22 09:54:30;;;;;;;1.63;1.50;;;;;19.90;94192.00;;;;7384034;19;20600;-75
2023/07/22 09:57:04;;;;;;;1.95;1.50;;;;;20.00;94156.00;;;;7389411;19;20592;-77
2023/07/22 09:59:34;;;;;;;2.28;1.63;;;;;20.60;94153.00;;;;7389308;19;20212;-78
2023/07/22 10:02:11;;;;;;;2.33;1.65;;;;;21.90;94150.00;;;;7393962;19;20200;-77
2023/07/22 10:04:42;;;;;;;1.77;1.50;;;;;22.20;94135.00;;;;7390638;19;20160;-81
2023/07/22 10:07:24;;;;;;;3.63;1.73;;;;;22.20;94137.00;;;;7389084;19;20216;-79
2023/07/22 10:09:57;;;;;;;1.77;1.50;;;;;22.50;94134.00;;;;7390900;19;20143;-80
2023/07/22 10:12:33;;;;;;;2.13;1.50;;;;;23.50;94133.00;;;;7390313;19;20145;-78
2023/07/22 10:15:12;;;;;;;2.90;1.77;;;;;23.90;94136.00;;;;7391011;19;20144;-80
2023/07/22 10:17:45;;;;;;;3.20;1.70;;;;;23.90;94164.00;;;;7381638;19;20159;-77
2023/07/22 10:20:21;;;;;;;2.38;1.60;;;;;22.10;94164.00;;;;7388501;19;20156;-76
2023/07/22 10:22:56;;;;;;;2.05;1.83;;;;;20.80;94179.00;;;;7390552;19;20133;-77
2023/07/22 10:25:31;;;;;;;2.70;1.90;;;;;20.20;94136.00;;;;7389169;19;20490;-78
2023/07/22 10:28:07;;;;;;;2.15;1.83;;;;;21.40;94139.00;;;;7390708;19;20128;-76
2023/07/22 10:30:43;;;;;;;2.90;1.77;;;;;22.40;94144.00;;;;7389602;19;20595;-77
2023/07/22 10:33:11;;;;;;;3.45;1.70;;;;;22.60;94139.00;;;;7390820;19;20136;-79
2023/07/22 10:36:04;;;;;;;1.70;1.35;;;;;23.00;94135.00;;;;7388952;19;20148;-82
2023/07/22 10:38:39;;;;;;;1.90;1.38;;;;;23.40;94133.00;;;;7392274;19;20271;-82
2023/07/22 10:41:18;;;;;;;1.98;1.60;;;;;22.70;94119.00;;;;7388120;19;21445;-75
2023/07/22 10:43:57;;;;;;;1.77;1.67;;;;;24.10;94123.00;;;;7385534;19;21019;-77
2023/07/22 10:46:38;;;;;;;1.98;1.60;;;;;24.90;94119.00;;;;7389435;19;20529;-79
2023/07/22 10:49:16;;;;;;;2.20;1.90;;;;;25.40;94141.00;;;;7391145;19;20620;-78
2023/07/22 10:51:51;;;;;;;1.95;1.75;;;;;23.10;94144.00;;;;7391925;19;20144;-76
2023/07/22 10:54:34;;;;;;;1.92;1.75;;;;;22.70;94159.00;;;;7390430;19;20174;-76
2023/07/22 10:57:25;;;;;;;4.03;1.92;;;;;22.50;94137.00;;;;7389854;19;20149;-77
2023/07/22 11:00:00;;;;;;;3.83;1.70;;;;;23.00;94148.00;;;;7390049;19;20612;-77
2023/07/22 11:02:30;;;;;;;2.45;1.67;;;;;23.30;94148.00;;;;7381135;19;20879;-78
2023/07/22 11:05:11;;;;;;;2.72;1.42;;;;;22.90;94149.00;;;;7383753;19;20149;-77
2023/07/22 11:07:47;;;;;;;3.80;1.50;;;;;22.50;94111.00;;;;7385529;19;20211;-78
2023/07/22 11:10:22;;;;;;;1.88;1.70;;;;;23.00;94143.00;;;;7384119;19;20136;-78
2023/07/22 11:12:50;;;;;;;2.50;1.67;;;;;23.10;94138.00;;;;7384016;19;20125;-77
2023/07/22 11:15:18;;;;;;;2.03;1.58;;;;;23.30;94112.00;;;;7386657;19;20125;-79
2023/07/22 11:17:54;;;;;;;2.28;1.58;;;;;23.70;94105.00;;;;7387658;19;20132;-77
2023/07/22 11:20:23;;;;;;;2.38;1.63;;;;;24.50;94098.00;;;;7383204;19;20149;-77
2023/07/22 11:23:02;;;;;;;3.38;2.10;;;;;24.60;94091.00;;;;7383230;19;20128;-77
2023/07/22 11:25:38;;;;;;;2.35;1.80;;;;;24.30;94088.00;;;;7384134;19;20148;-78
2023/07/22 11:28:13;;;;;;;3.70;1.70;;;;;24.70;94090.00;;;;7385023;19;20137;-80
2023/07/22 11:30:43;;;;;;;2.15;1.95;;;;;25.20;94087.00;;;;7384592;19;20144;-77
2023/07/22 11:33:17;;;;;;;1.98;1.77;;;;;24.70;94092.00;;;;7383826;19;20148;-78
2023/07/22 11:35:52;;;;;;;2.30;1.90;;;;;25.00;94074.00;;;;7383622;19;20148;-78
2023/07/22 11:38:24;;;;;;;2.10;1.90;;;;;26.20;94068.00;;;;7385366;19;20208;-79
2023/07/22 11:41:00;;;;;;;2.10;1.90;;;;;27.90;94101.00;;;;7382596;19;20216;-78
2023/07/22 11:43:35;;;;;;;2.75;1.77;;;;;26.10;94111.00;;;;7384935;19;20159;-77
2023/07/22 11:46:06;;;;;;;1.90;1.75;;;;;25.20;94079.00;;;;7383303;19;20264;-82
2023/07/22 11:48:52;;;;;;;2.05;1.90;;;;;25.30;94121.00;;;;7385160;19;20159;-81
2023/07/22 11:51:22;;;;;;;1.98;1.75;;;;;23.90;94125.00;;;;7387728;19;20152;-81
2023/07/22 11:53:57;;;;;;;2.25;1.70;;;;;23.80;94106.00;;;;7386183;19;20201;-80
2023/07/22 11:56:31;;;;;;;2.38;2.03;;;;;25.00;94069.00;;;;7380849;19;20137;-79
2023/07/22 11:59:08;;;;;;;6.03;2.15;;;;;26.80;94108.00;;;;7382722;19;20152;-77
2023/07/22 12:01:45;;;;;;;3.38;1.80;;;;;25.30;94074.00;;;;7380968;19;20523;-81
2023/07/22 12:04:23;;;;;;;1.85;1.65;;;;;25.70;94063.00;;;;7378537;19;20180;-83
2023/07/22 12:07:04;;;;;;;2.25;2.00;;;;;26.20;94065.00;;;;7381364;19;20184;-82
2023/07/22 12:09:40;;;;;;;1.95;1.70;;;;;25.60;94109.00;;;;7384024;19;20136;-80
2023/07/22 12:12:08;;;;;;;2.90;2.10;;;;;24.60;94121.00;;;;7382045;19;20145;-81
2023/07/22 12:14:44;;;;;;;3.78;1.80;;;;;24.10;94111.00;;;;7386405;19;20148;-82
2023/07/22 12:17:12;;;;;;;3.05;1.90;;;;;23.50;94060.00;;;;7386194;19;20157;-79
2023/07/22 12:19:52;;;;;;;2.67;1.85;;;;;24.90;94063.00;;;;7385370;19;20127;-81
2023/07/22 12:22:29;;;;;;;2.05;1.80;;;;;25.60;94097.00;;;;7382090;19;20155;-80
2023/07/22 12:25:05;;;;;;;2.53;1.70;;;;;24.90;94106.00;;;;7383244;19;20156;-79
2023/07/22 12:27:40;;;;;;;2.33;1.73;;;;;23.50;94111.00;;;;7385066;19;20591;-81
2023/07/22 12:30:08;;;;;;;2.10;1.90;;;;;23.80;94076.00;;;;7384134;19;20636;-80
2023/07/22 12:32:47;;;;;;;2.13;1.90;;;;;24.30;94105.00;;;;7386088;19;20608;-80
2023/07/22 12:35:23;;;;;;;4.55;2.05;;;;;23.70;94104.00;;;;7382502;19;20755;-79
2023/07/22 12:38:00;;;;;;;2.30;1.85;;;;;24.30;94069.00;;;;7380361;19;20140;-83
2023/07/22 12:40:36;;;;;;;2.35;2.05;;;;;24.90;94074.00;;;;7382883;19;20148;-79
2023/07/22 12:43:05;;;;;;;6.30;2.40;;;;;24.60;94100.00;;;;7384027;19;20128;-78
2023/07/22 12:45:40;;;;;;;2.40;2.08;;;;;24.00;94117.00;;;;7385704;19;20148;-76
2023/07/22 12:48:10;;;;;;;4.35;2.60;;;;;23.10;94078.00;;;;7387794;19;20155;-80
2023/07/22 12:50:49;;;;;;;5.18;2.00;;;;;23.10;94072.00;;;;7383752;19;20601;-79
2023/07/22 12:53:25;;;;;;;2.25;2.05;;;;;24.20;94085.00;;;;7385513;19;20588;-80